Time;durP1;ratioP1;P1;durP2;ratioP2;P2;SDS_P1;SDS_P2;PMS_P1;PMS_P2;Temp;Humidity;BMP_temperature;BMP_pressure;BME280_temperature;BME280_humidity;BME280_pressure;Samples;Min_cycle;Max_cycle;Signal;HPM_P1;HPM_P2
2021/09/04 00:01:00;;;;;;;1.77;1.52;;;;;;;;;;2079038;28;20505;-78
2021/09/04 00:02:19;;;;;;;2.97;1.70;;;;;;;;;;2081969;28;20065;-77
2021/09/04 00:03:41;;;;;;;6.45;1.85;;;;;;;;;;2081904;28;20030;-77
2021/09/04 00:05:00;;;;;;;2.22;1.15;;;;;;;;;;2080705;28;20069;-77
2021/09/04 00:06:18;;;;;;;1.38;1.27;;;;;;;;;;2078442;28;20026;-78
2021/09/04 00:07:37;;;;;;;3.45;1.30;;;;;;;;;;2078381;28;20062;-77
2021/09/04 00:08:56;;;;;;;2.53;1.30;;;;;;;;;;2080161;28;20080;-77
2021/09/04 00:10:15;;;;;;;2.13;1.10;;;;;;;;;;2081888;28;20025;-77
2021/09/04 00:11:33;;;;;;;3.58;1.30;;;;;;;;;;2078840;28;20021;-77
2021/09/04 00:12:52;;;;;;;3.53;1.30;;;;;;;;;;2077107;28;20038;-77
2021/09/04 00:14:11;;;;;;;3.70;1.27;;;;;;;;;;2092683;28;20033;-77
2021/09/04 00:15:31;;;;;;;2.30;1.60;;;;;;;;;;2079829;28;20120;-77
2021/09/04 00:16:50;;;;;;;3.95;1.40;;;;;;;;;;2082517;28;20026;-77
2021/09/04 00:18:09;;;;;;;1.38;1.27;;;;;;;;;;2083606;28;20041;-78
2021/09/04 00:19:28;;;;;;;1.98;1.15;;;;;;;;;;2080260;28;20025;-78
2021/09/04 00:20:47;;;;;;;2.45;1.50;;;;;;;;;;2077334;28;20030;-77
2021/09/04 00:22:06;;;;;;;4.00;1.10;;;;;;;;;;2077600;28;20026;-77
2021/09/04 00:23:24;;;;;;;3.33;1.52;;;;;;;;;;2082051;28;20053;-77
2021/09/04 00:24:44;;;;;;;3.80;1.40;;;;;;;;;;2078437;28;20037;-77
2021/09/04 00:26:02;;;;;;;2.40;1.52;;;;;;;;;;2078541;28;20042;-77
2021/09/04 00:27:21;;;;;;;3.05;1.05;;;;;;;;;;2078592;28;20026;-77
2021/09/04 00:28:42;;;;;;;3.17;1.13;;;;;;;;;;2077344;28;20101;-77
2021/09/04 00:30:01;;;;;;;3.22;1.10;;;;;;;;;;2078995;28;20567;-77
2021/09/04 00:31:19;;;;;;;1.70;1.30;;;;;;;;;;2078821;28;20037;-77
2021/09/04 00:32:38;;;;;;;2.58;1.50;;;;;;;;;;2080305;28;20025;-80
2021/09/04 00:33:57;;;;;;;2.10;1.10;;;;;;;;;;2087809;28;20473;-76
2021/09/04 00:35:16;;;;;;;5.53;1.40;;;;;;;;;;2074804;28;20030;-76
2021/09/04 00:36:35;;;;;;;5.22;0.90;;;;;;;;;;2077254;28;20026;-77
2021/09/04 00:37:54;;;;;;;3.88;1.05;;;;;;;;;;2082552;28;20033;-77
2021/09/04 00:39:13;;;;;;;2.90;1.00;;;;;;;;;;2073791;28;20391;-78
2021/09/04 00:40:31;;;;;;;1.15;1.00;;;;;;;;;;2076987;28;20030;-77
2021/09/04 00:41:50;;;;;;;1.63;1.05;;;;;;;;;;2077977;28;20033;-76
2021/09/04 00:43:09;;;;;;;1.42;0.90;;;;;;;;;;2074331;28;20030;-77
2021/09/04 00:44:28;;;;;;;2.53;0.80;;;;;;;;;;2081066;28;20397;-77
2021/09/04 00:45:46;;;;;;;1.30;0.88;;;;;;;;;;2077996;28;20513;-76
2021/09/04 00:47:06;;;;;;;3.03;1.02;;;;;;;;;;2079931;28;20034;-80
2021/09/04 00:48:25;;;;;;;1.42;0.90;;;;;;;;;;2075672;28;20400;-77
2021/09/04 00:49:44;;;;;;;2.50;0.90;;;;;;;;;;2076812;28;20029;-78
2021/09/04 00:51:03;;;;;;;6.00;1.35;;;;;;;;;;2075235;28;20477;-76
2021/09/04 00:52:21;;;;;;;0.98;0.75;;;;;;;;;;2079736;28;20042;-78
2021/09/04 00:53:42;;;;;;;1.55;0.70;;;;;;;;;;2082448;28;20485;-77
2021/09/04 00:55:01;;;;;;;5.95;1.10;;;;;;;;;;2093378;28;20444;-77
2021/09/04 00:56:19;;;;;;;3.13;1.02;;;;;;;;;;2080682;28;20394;-77
2021/09/04 00:57:38;;;;;;;2.92;1.10;;;;;;;;;;2078937;28;20029;-77
2021/09/04 00:59:04;;;;;;;1.08;1.05;;;;;;;;;;2078482;28;20073;-77
2021/09/04 01:00:23;;;;;;;1.30;0.90;;;;;;;;;;2084468;28;20381;-78
2021/09/04 01:01:42;;;;;;;3.97;1.00;;;;;;;;;;2081119;28;20026;-77
2021/09/04 01:03:01;;;;;;;2.13;0.90;;;;;;;;;;2084051;28;20037;-77
2021/09/04 01:04:21;;;;;;;3.22;1.17;;;;;;;;;;2082324;28;20130;-77
2021/09/04 01:05:40;;;;;;;1.27;1.02;;;;;;;;;;2077290;28;20026;-77
2021/09/04 01:06:59;;;;;;;2.00;0.80;;;;;;;;;;2068580;28;20486;-77
2021/09/04 01:08:17;;;;;;;1.35;0.80;;;;;;;;;;2078742;28;20025;-77
2021/09/04 01:09:36;;;;;;;2.30;0.70;;;;;;;;;;2077930;28;20068;-77
2021/09/04 01:10:55;;;;;;;4.90;0.95;;;;;;;;;;2084837;28;20025;-77
2021/09/04 01:12:14;;;;;;;2.45;0.90;;;;;;;;;;2087232;28;20028;-77
2021/09/04 01:13:33;;;;;;;1.13;0.90;;;;;;;;;;2080781;28;20033;-77
2021/09/04 01:14:51;;;;;;;2.65;1.10;;;;;;;;;;2074287;28;20022;-77
2021/09/04 01:16:10;;;;;;;1.73;1.00;;;;;;;;;;2070842;28;20038;-77
2021/09/04 01:17:29;;;;;;;1.73;0.90;;;;;;;;;;2084728;28;20440;-77
2021/09/04 01:18:48;;;;;;;2.78;1.13;;;;;;;;;;2080326;28;20520;-77
2021/09/04 01:20:07;;;;;;;2.65;1.23;;;;;;;;;;2081869;28;20041;-78
2021/09/04 01:21:26;;;;;;;1.80;0.95;;;;;;;;;;2083557;28;20033;-77
2021/09/04 01:22:45;;;;;;;2.53;0.90;;;;;;;;;;2078115;28;20034;-77
2021/09/04 01:24:07;;;;;;;1.92;0.90;;;;;;;;;;2080234;28;20072;-77
2021/09/04 01:25:29;;;;;;;1.77;0.77;;;;;;;;;;2077857;28;20063;-77
2021/09/04 01:26:49;;;;;;;1.35;0.70;;;;;;;;;;2080583;28;20018;-78
2021/09/04 01:28:09;;;;;;;3.00;1.05;;;;;;;;;;2088579;28;20111;-77
2021/09/04 01:29:28;;;;;;;3.15;0.75;;;;;;;;;;2081453;28;20026;-77
2021/09/04 01:30:46;;;;;;;1.20;0.73;;;;;;;;;;2080253;28;20025;-77
2021/09/04 01:32:05;;;;;;;2.15;0.65;;;;;;;;;;2083285;28;20026;-77
2021/09/04 01:33:24;;;;;;;1.02;0.60;;;;;;;;;;2077267;28;20018;-78
2021/09/04 01:34:43;;;;;;;4.22;0.82;;;;;;;;;;2083385;28;20100;-77
2021/09/04 01:36:02;;;;;;;3.22;0.60;;;;;;;;;;2080279;28;20061;-77
2021/09/04 01:37:21;;;;;;;1.02;0.85;;;;;;;;;;2078184;28;20030;-77
2021/09/04 01:38:39;;;;;;;1.50;0.98;;;;;;;;;;2074676;28;20026;-77
2021/09/04 01:39:59;;;;;;;0.57;0.47;;;;;;;;;;2078291;28;20409;-76
2021/09/04 01:41:17;;;;;;;2.10;0.90;;;;;;;;;;2072265;28;20207;-77
2021/09/04 01:42:36;;;;;;;2.35;1.05;;;;;;;;;;2083810;28;20548;-76
2021/09/04 01:43:56;;;;;;;0.75;0.68;;;;;;;;;;2086947;28;20037;-77
2021/09/04 01:45:15;;;;;;;1.08;0.90;;;;;;;;;;2077890;28;20465;-76
2021/09/04 01:46:34;;;;;;;1.85;0.77;;;;;;;;;;2078327;28;20105;-76
2021/09/04 01:47:53;;;;;;;0.90;0.63;;;;;;;;;;2079348;28;20072;-76
2021/09/04 01:49:12;;;;;;;1.58;0.70;;;;;;;;;;2081743;28;20021;-77
2021/09/04 01:50:31;;;;;;;2.50;0.60;;;;;;;;;;2093609;28;20400;-77
2021/09/04 01:51:50;;;;;;;1.38;0.82;;;;;;;;;;2078206;28;20025;-77
2021/09/04 01:53:10;;;;;;;6.22;1.00;;;;;;;;;;2079761;28;20121;-77
2021/09/04 01:54:28;;;;;;;1.63;0.65;;;;;;;;;;2092347;28;20032;-77
2021/09/04 01:55:47;;;;;;;2.75;0.52;;;;;;;;;;2079138;28;20065;-77
2021/09/04 01:57:06;;;;;;;2.00;0.70;;;;;;;;;;2080326;28;20432;-76
2021/09/04 01:58:25;;;;;;;4.68;0.80;;;;;;;;;;2085964;28;20033;-77
2021/09/04 01:59:45;;;;;;;2.25;0.77;;;;;;;;;;2075806;28;20089;-76
2021/09/04 02:01:05;;;;;;;0.75;0.50;;;;;;;;;;2079870;28;20073;-76
2021/09/04 02:02:24;;;;;;;5.43;1.13;;;;;;;;;;2080738;28;20478;-76
2021/09/04 02:03:43;;;;;;;2.92;0.60;;;;;;;;;;2085386;28;20493;-77
2021/09/04 02:05:01;;;;;;;1.58;0.73;;;;;;;;;;2079341;28;20501;-76
2021/09/04 02:06:20;;;;;;;0.95;0.68;;;;;;;;;;2076567;28;20481;-77
2021/09/04 02:07:39;;;;;;;0.70;0.60;;;;;;;;;;2080041;28;20029;-77
2021/09/04 02:08:58;;;;;;;1.00;0.70;;;;;;;;;;2073728;28;20405;-77
2021/09/04 02:10:17;;;;;;;1.33;0.60;;;;;;;;;;2080199;28;20017;-77
2021/09/04 02:11:36;;;;;;;2.25;0.70;;;;;;;;;;2081124;28;20014;-77
2021/09/04 02:12:55;;;;;;;1.80;0.70;;;;;;;;;;2082011;28;20497;-77
2021/09/04 02:14:14;;;;;;;3.25;0.90;;;;;;;;;;2079917;28;20034;-77
2021/09/04 02:15:32;;;;;;;2.20;0.50;;;;;;;;;;2077597;28;20025;-77
2021/09/04 02:16:51;;;;;;;3.40;0.82;;;;;;;;;;2078971;28;20116;-77
2021/09/04 02:18:10;;;;;;;0.95;0.60;;;;;;;;;;2077216;28;20041;-77
2021/09/04 02:19:29;;;;;;;0.98;0.70;;;;;;;;;;2083656;28;20033;-77
2021/09/04 02:20:48;;;;;;;1.10;0.77;;;;;;;;;;2086124;28;20032;-77
2021/09/04 02:22:07;;;;;;;0.93;0.60;;;;;;;;;;2075692;28;20517;-78
2021/09/04 02:23:26;;;;;;;1.55;0.60;;;;;;;;;;2085616;28;20112;-77
2021/09/04 02:24:45;;;;;;;0.70;0.60;;;;;;;;;;2081617;28;20464;-77
2021/09/04 02:26:04;;;;;;;0.68;0.57;;;;;;;;;;2073677;28;20053;-77
2021/09/04 02:27:25;;;;;;;2.40;0.77;;;;;;;;;;2074626;28;20026;-77
2021/09/04 02:28:44;;;;;;;0.88;0.47;;;;;;;;;;2077066;28;20104;-78
2021/09/04 02:30:04;;;;;;;0.63;0.30;;;;;;;;;;2081208;28;20068;-77
2021/09/04 02:31:25;;;;;;;3.75;0.80;;;;;;;;;;2090347;28;20013;-77
2021/09/04 02:32:44;;;;;;;1.60;0.60;;;;;;;;;;2083434;28;20029;-77
2021/09/04 02:34:04;;;;;;;0.77;0.50;;;;;;;;;;2078536;28;20022;-77
2021/09/04 02:35:22;;;;;;;1.40;0.70;;;;;;;;;;2078007;28;20014;-77
2021/09/04 02:36:41;;;;;;;1.90;0.40;;;;;;;;;;2075194;28;20129;-76
2021/09/04 02:38:02;;;;;;;0.98;0.70;;;;;;;;;;2079599;28;20022;-77
2021/09/04 02:39:21;;;;;;;0.77;0.55;;;;;;;;;;2080793;28;20068;-76
2021/09/04 02:40:40;;;;;;;0.70;0.52;;;;;;;;;;2078502;28;20026;-75
2021/09/04 02:41:58;;;;;;;1.63;0.70;;;;;;;;;;2078642;28;20378;-77
2021/09/04 02:43:17;;;;;;;1.05;0.60;;;;;;;;;;2080893;28;20143;-76
2021/09/04 02:44:36;;;;;;;0.55;0.38;;;;;;;;;;2080896;28;20018;-77
2021/09/04 02:45:55;;;;;;;1.73;0.60;;;;;;;;;;2081470;28;20033;-76
2021/09/04 02:47:14;;;;;;;0.77;0.45;;;;;;;;;;2077515;28;20030;-77
2021/09/04 02:48:33;;;;;;;1.08;0.73;;;;;;;;;;2075424;28;20501;-77
2021/09/04 02:49:52;;;;;;;0.80;0.68;;;;;;;;;;2074997;28;20034;-77
2021/09/04 02:51:10;;;;;;;0.50;0.50;;;;;;;;;;2082592;28;20030;-77
2021/09/04 02:52:29;;;;;;;1.65;0.57;;;;;;;;;;2076345;28;20021;-77
2021/09/04 02:53:48;;;;;;;0.70;0.43;;;;;;;;;;2090471;28;20025;-76
2021/09/04 02:55:07;;;;;;;1.15;0.68;;;;;;;;;;2078716;28;20053;-76
2021/09/04 02:56:27;;;;;;;6.40;0.93;;;;;;;;;;2086772;28;20029;-77
2021/09/04 02:57:46;;;;;;;5.78;0.60;;;;;;;;;;2076030;28;20444;-79
2021/09/04 02:59:04;;;;;;;0.50;0.50;;;;;;;;;;2076838;28;20493;-76
2021/09/04 03:00:23;;;;;;;1.00;0.60;;;;;;;;;;2088056;28;20053;-77
2021/09/04 03:01:42;;;;;;;0.88;0.60;;;;;;;;;;2077409;28;20025;-77
2021/09/04 03:03:01;;;;;;;0.90;0.60;;;;;;;;;;2074433;28;20029;-76
2021/09/04 03:04:20;;;;;;;0.22;0.22;;;;;;;;;;2081021;28;20026;-76
2021/09/04 03:05:39;;;;;;;1.77;0.45;;;;;;;;;;2081656;28;20029;-77
2021/09/04 03:06:58;;;;;;;2.17;0.63;;;;;;;;;;2076960;28;20021;-76
2021/09/04 03:08:17;;;;;;;2.15;0.80;;;;;;;;;;2078586;28;20025;-77
2021/09/04 03:09:36;;;;;;;1.20;0.60;;;;;;;;;;2080023;28;20026;-77
2021/09/04 03:10:55;;;;;;;1.65;0.40;;;;;;;;;;2077296;28;20617;-76
2021/09/04 03:12:14;;;;;;;1.13;0.40;;;;;;;;;;2078867;28;20032;-76
2021/09/04 03:13:34;;;;;;;0.68;0.40;;;;;;;;;;2088102;28;20100;-77
2021/09/04 03:14:53;;;;;;;1.02;0.50;;;;;;;;;;2077229;28;20526;-77
2021/09/04 03:16:12;;;;;;;0.57;0.38;;;;;;;;;;2082632;28;20033;-78
2021/09/04 03:17:30;;;;;;;1.75;0.65;;;;;;;;;;2080832;28;20472;-77
2021/09/04 03:18:49;;;;;;;1.23;0.32;;;;;;;;;;2079372;28;20037;-78
2021/09/04 03:20:08;;;;;;;2.80;0.55;;;;;;;;;;2078259;28;20037;-77
2021/09/04 03:21:27;;;;;;;0.43;0.30;;;;;;;;;;2079271;28;20029;-77
2021/09/04 03:22:48;;;;;;;0.55;0.50;;;;;;;;;;2081494;28;20033;-77
2021/09/04 03:24:07;;;;;;;1.17;0.88;;;;;;;;;;2079383;28;20060;-77
2021/09/04 03:25:26;;;;;;;0.90;0.50;;;;;;;;;;2078989;28;20041;-77
2021/09/04 03:26:45;;;;;;;1.40;0.55;;;;;;;;;;2078761;28;20089;-76
2021/09/04 03:28:04;;;;;;;0.68;0.52;;;;;;;;;;2075360;28;20065;-77
2021/09/04 03:29:22;;;;;;;0.60;0.50;;;;;;;;;;2077961;28;20022;-77
2021/09/04 03:30:41;;;;;;;0.65;0.50;;;;;;;;;;2082180;28;20495;-77
2021/09/04 03:32:00;;;;;;;0.90;0.50;;;;;;;;;;2079232;28;20029;-76
2021/09/04 03:33:19;;;;;;;2.10;0.50;;;;;;;;;;2084538;28;20038;-79
2021/09/04 03:34:38;;;;;;;0.90;0.50;;;;;;;;;;2083409;28;20025;-77
2021/09/04 03:35:56;;;;;;;1.23;0.77;;;;;;;;;;2082780;28;20116;-76
2021/09/04 03:37:15;;;;;;;1.10;0.40;;;;;;;;;;2079076;28;20409;-77
2021/09/04 03:38:34;;;;;;;0.40;0.40;;;;;;;;;;2079437;28;20042;-77
2021/09/04 03:39:53;;;;;;;1.48;0.32;;;;;;;;;;2082591;28;20018;-76
2021/09/04 03:41:12;;;;;;;0.98;0.38;;;;;;;;;;2079442;28;20496;-76
2021/09/04 03:42:31;;;;;;;1.25;0.60;;;;;;;;;;2081291;28;20501;-76
2021/09/04 03:43:50;;;;;;;1.38;0.60;;;;;;;;;;2078391;28;20116;-76
2021/09/04 03:45:09;;;;;;;0.93;0.55;;;;;;;;;;2073482;28;20033;-77
2021/09/04 03:46:28;;;;;;;0.50;0.30;;;;;;;;;;2081791;28;20022;-76
2021/09/04 03:47:47;;;;;;;1.17;0.52;;;;;;;;;;2079708;28;20477;-76
2021/09/04 03:49:06;;;;;;;0.60;0.43;;;;;;;;;;2082826;28;20111;-76
2021/09/04 03:50:25;;;;;;;0.50;0.38;;;;;;;;;;2081062;28;20083;-77
2021/09/04 03:51:44;;;;;;;0.75;0.47;;;;;;;;;;2088989;28;20120;-77
2021/09/04 03:53:03;;;;;;;0.30;0.30;;;;;;;;;;2081880;28;20061;-76
2021/09/04 03:54:22;;;;;;;2.60;0.40;;;;;;;;;;2078784;28;20021;-77
2021/09/04 03:55:40;;;;;;;0.35;0.28;;;;;;;;;;2074920;28;20025;-77
2021/09/04 03:56:59;;;;;;;1.15;0.50;;;;;;;;;;2078832;28;20025;-77
2021/09/04 03:58:18;;;;;;;1.30;0.50;;;;;;;;;;2080579;28;20037;-77
2021/09/04 03:59:36;;;;;;;2.05;0.60;;;;;;;;;;2084179;28;20028;-77
2021/09/04 04:00:55;;;;;;;6.22;0.73;;;;;;;;;;2080577;28;20042;-76
2021/09/04 04:02:14;;;;;;;0.77;0.50;;;;;;;;;;2074178;28;20030;-77
2021/09/04 04:03:33;;;;;;;0.55;0.47;;;;;;;;;;2079807;28;20112;-77
2021/09/04 04:04:51;;;;;;;1.00;0.40;;;;;;;;;;2078361;28;20026;-76
2021/09/04 04:06:10;;;;;;;2.72;0.50;;;;;;;;;;2080424;28;20494;-77
2021/09/04 04:07:29;;;;;;;0.68;0.30;;;;;;;;;;2083659;28;20021;-77
2021/09/04 04:08:48;;;;;;;3.67;0.52;;;;;;;;;;2079264;28;20096;-77
2021/09/04 04:10:07;;;;;;;1.08;0.60;;;;;;;;;;2078415;28;20398;-77
2021/09/04 04:11:26;;;;;;;0.75;0.52;;;;;;;;;;2074760;28;20112;-77
2021/09/04 04:12:45;;;;;;;0.52;0.28;;;;;;;;;;2088832;28;20052;-77
2021/09/04 04:14:04;;;;;;;1.17;0.40;;;;;;;;;;2089036;28;20025;-76
2021/09/04 04:15:23;;;;;;;0.30;0.30;;;;;;;;;;2081970;28;20109;-77
2021/09/04 04:16:42;;;;;;;0.80;0.30;;;;;;;;;;2080350;28;20029;-78
2021/09/04 04:18:01;;;;;;;1.40;0.63;;;;;;;;;;2077398;28;20029;-79
2021/09/04 04:19:19;;;;;;;1.50;0.50;;;;;;;;;;2084664;28;20107;-76
2021/09/04 04:20:38;;;;;;;1.17;0.38;;;;;;;;;;2075940;28;20018;-76
2021/09/04 04:21:57;;;;;;;1.48;0.80;;;;;;;;;;2081072;28;20033;-77
2021/09/04 04:23:16;;;;;;;0.30;0.28;;;;;;;;;;2082305;28;20026;-77
2021/09/04 04:24:35;;;;;;;1.17;0.40;;;;;;;;;;2077238;28;20041;-77
2021/09/04 04:25:54;;;;;;;0.82;0.40;;;;;;;;;;2077224;28;20398;-77
2021/09/04 04:27:12;;;;;;;0.30;0.30;;;;;;;;;;2082128;28;20022;-77
2021/09/04 04:28:33;;;;;;;0.85;0.45;;;;;;;;;;2082968;28;20034;-77
2021/09/04 04:29:52;;;;;;;5.05;0.40;;;;;;;;;;2084375;28;20029;-77
2021/09/04 04:31:11;;;;;;;1.58;0.35;;;;;;;;;;2077966;28;20221;-77
2021/09/04 04:32:30;;;;;;;2.85;0.50;;;;;;;;;;2078815;28;20053;-78
2021/09/04 04:33:49;;;;;;;0.70;0.25;;;;;;;;;;2078724;28;20025;-77
2021/09/04 04:35:09;;;;;;;0.50;0.40;;;;;;;;;;2081797;28;20030;-78
2021/09/04 04:36:27;;;;;;;1.45;0.70;;;;;;;;;;2087897;28;20037;-78
2021/09/04 04:37:46;;;;;;;0.80;0.50;;;;;;;;;;2076942;28;20030;-78
2021/09/04 04:39:05;;;;;;;1.67;0.50;;;;;;;;;;2082904;28;20037;-76
2021/09/04 04:40:24;;;;;;;0.60;0.60;;;;;;;;;;2078776;28;20037;-78
2021/09/04 04:41:42;;;;;;;1.05;0.30;;;;;;;;;;2079518;28;20055;-78
2021/09/04 04:43:01;;;;;;;0.88;0.50;;;;;;;;;;2077025;28;20041;-78
2021/09/04 04:44:20;;;;;;;0.68;0.30;;;;;;;;;;2085275;28;20025;-77
2021/09/04 04:45:39;;;;;;;2.08;0.40;;;;;;;;;;2075225;28;20033;-77
2021/09/04 04:46:57;;;;;;;1.10;0.32;;;;;;;;;;2087341;28;20100;-77
2021/09/04 04:48:22;;;;;;;0.30;0.30;;;;;;;;;;2076124;28;20026;-79
2021/09/04 04:49:41;;;;;;;2.10;0.30;;;;;;;;;;2078878;28;20040;-78
2021/09/04 04:51:00;;;;;;;0.40;0.35;;;;;;;;;;2083571;28;20033;-78
2021/09/04 04:52:19;;;;;;;0.38;0.32;;;;;;;;;;2073015;28;20034;-78
2021/09/04 04:53:37;;;;;;;2.20;0.50;;;;;;;;;;2075896;28;20013;-79
2021/09/04 04:54:56;;;;;;;2.92;0.60;;;;;;;;;;2077614;28;20021;-79
2021/09/04 04:56:15;;;;;;;2.15;0.40;;;;;;;;;;2081783;28;20041;-78
2021/09/04 04:57:34;;;;;;;1.85;0.40;;;;;;;;;;2080859;28;20184;-78
2021/09/04 04:58:53;;;;;;;1.00;0.30;;;;;;;;;;2081448;28;20030;-79
2021/09/04 05:00:12;;;;;;;1.00;0.32;;;;;;;;;;2086043;28;20472;-78
2021/09/04 05:01:31;;;;;;;1.38;0.30;;;;;;;;;;2078066;28;20025;-80
2021/09/04 05:02:50;;;;;;;2.35;0.40;;;;;;;;;;2080853;28;20386;-79
2021/09/04 05:04:09;;;;;;;0.50;0.30;;;;;;;;;;2077578;28;20033;-79
2021/09/04 05:05:28;;;;;;;1.45;0.70;;;;;;;;;;2077592;28;20108;-79
2021/09/04 05:06:46;;;;;;;1.23;0.40;;;;;;;;;;2078146;28;20438;-78
2021/09/04 05:08:05;;;;;;;1.60;0.40;;;;;;;;;;2078548;28;20014;-78
2021/09/04 05:09:24;;;;;;;1.88;0.30;;;;;;;;;;2075678;28;20021;-79
2021/09/04 05:10:43;;;;;;;0.65;0.30;;;;;;;;;;2081066;28;20026;-79
2021/09/04 05:12:02;;;;;;;0.82;0.20;;;;;;;;;;2075557;28;20502;-78
2021/09/04 05:13:21;;;;;;;1.15;0.32;;;;;;;;;;2078076;28;20037;-78
2021/09/04 05:14:40;;;;;;;10.32;0.70;;;;;;;;;;2080525;28;20457;-79
2021/09/04 05:16:00;;;;;;;0.85;0.30;;;;;;;;;;2080700;28;20037;-78
2021/09/04 05:17:18;;;;;;;1.13;0.57;;;;;;;;;;2074328;28;20053;-79
2021/09/04 05:18:41;;;;;;;0.57;0.30;;;;;;;;;;2080362;28;20033;-80
2021/09/04 05:20:00;;;;;;;3.78;0.40;;;;;;;;;;2080926;28;20034;-78
2021/09/04 05:21:19;;;;;;;4.20;0.40;;;;;;;;;;2076102;28;20138;-79
2021/09/04 05:22:40;;;;;;;2.97;0.30;;;;;;;;;;2077618;28;20037;-80
2021/09/04 05:23:59;;;;;;;0.57;0.40;;;;;;;;;;2080402;28;20041;-79
2021/09/04 05:25:17;;;;;;;0.35;0.30;;;;;;;;;;2081187;28;20037;-78
2021/09/04 05:26:36;;;;;;;1.30;0.32;;;;;;;;;;2078699;28;20021;-79
2021/09/04 05:27:55;;;;;;;1.75;0.43;;;;;;;;;;2080498;28;20021;-80
2021/09/04 05:29:15;;;;;;;1.33;0.30;;;;;;;;;;2078129;28;20033;-78
2021/09/04 05:30:34;;;;;;;0.40;0.40;;;;;;;;;;2085044;28;20049;-79
2021/09/04 05:31:53;;;;;;;1.67;0.30;;;;;;;;;;2081280;28;20026;-77
2021/09/04 05:33:11;;;;;;;0.93;0.43;;;;;;;;;;2086581;28;20021;-78
2021/09/04 05:34:30;;;;;;;1.33;0.30;;;;;;;;;;2078771;28;20021;-79
2021/09/04 05:35:49;;;;;;;0.70;0.38;;;;;;;;;;2083021;28;20408;-81
2021/09/04 05:37:08;;;;;;;1.80;0.57;;;;;;;;;;2083101;28;20033;-79
2021/09/04 05:38:27;;;;;;;2.42;0.70;;;;;;;;;;2077735;28;20025;-80
2021/09/04 05:39:46;;;;;;;0.98;0.32;;;;;;;;;;2076607;28;20029;-80
2021/09/04 05:41:06;;;;;;;0.77;0.47;;;;;;;;;;2075873;28;20026;-79
2021/09/04 05:42:25;;;;;;;2.05;0.50;;;;;;;;;;2074336;28;20100;-79
2021/09/04 05:43:46;;;;;;;3.25;0.60;;;;;;;;;;2073274;28;20088;-79
2021/09/04 05:45:05;;;;;;;3.10;0.45;;;;;;;;;;2081272;28;20037;-78
2021/09/04 05:46:25;;;;;;;0.68;0.20;;;;;;;;;;2085890;28;20056;-78
2021/09/04 05:47:43;;;;;;;0.40;0.40;;;;;;;;;;2077866;28;20022;-79
2021/09/04 05:49:02;;;;;;;0.55;0.30;;;;;;;;;;2080688;28;20034;-78
2021/09/04 05:50:20;;;;;;;0.68;0.30;;;;;;;;;;2088738;28;20492;-79
2021/09/04 05:51:39;;;;;;;3.45;0.35;;;;;;;;;;2082831;28;20037;-79
2021/09/04 05:52:58;;;;;;;1.65;0.30;;;;;;;;;;2089354;28;20104;-80
2021/09/04 05:54:17;;;;;;;2.47;0.40;;;;;;;;;;2079923;28;20498;-81
2021/09/04 05:55:37;;;;;;;0.50;0.50;;;;;;;;;;2072370;28;20038;-80
2021/09/04 05:56:56;;;;;;;1.33;0.60;;;;;;;;;;2081054;28;20390;-81
2021/09/04 05:58:15;;;;;;;0.30;0.30;;;;;;;;;;2091404;28;20040;-80
2021/09/04 05:59:33;;;;;;;0.65;0.65;;;;;;;;;;2083179;28;20477;-81
2021/09/04 06:00:53;;;;;;;1.38;0.40;;;;;;;;;;2080468;28;20077;-81
2021/09/04 06:02:12;;;;;;;2.22;0.22;;;;;;;;;;2077348;28;20417;-82
2021/09/04 06:03:30;;;;;;;0.70;0.30;;;;;;;;;;2076727;28;20022;-81
2021/09/04 06:04:49;;;;;;;0.38;0.32;;;;;;;;;;2078843;28;20033;-81
2021/09/04 06:06:08;;;;;;;0.40;0.25;;;;;;;;;;2081762;28;20452;-78
2021/09/04 06:07:27;;;;;;;0.43;0.20;;;;;;;;;;2078175;28;20037;-78
2021/09/04 06:08:45;;;;;;;0.70;0.55;;;;;;;;;;2077134;28;20029;-79
2021/09/04 06:10:04;;;;;;;0.65;0.40;;;;;;;;;;2084668;28;20052;-79
2021/09/04 06:11:23;;;;;;;1.98;0.40;;;;;;;;;;2081227;28;20022;-80
2021/09/04 06:12:42;;;;;;;0.28;0.20;;;;;;;;;;2077098;28;20030;-80
2021/09/04 06:14:01;;;;;;;2.15;0.80;;;;;;;;;;2077442;28;20107;-81
2021/09/04 06:15:22;;;;;;;1.15;0.38;;;;;;;;;;2078799;28;20025;-81
2021/09/04 06:16:41;;;;;;;1.75;0.47;;;;;;;;;;2080235;28;20029;-78
2021/09/04 06:17:59;;;;;;;0.55;0.30;;;;;;;;;;2078039;28;20025;-80
2021/09/04 06:19:19;;;;;;;0.82;0.30;;;;;;;;;;2079302;28;20029;-81
2021/09/04 06:20:38;;;;;;;0.38;0.30;;;;;;;;;;2079507;28;20104;-80
2021/09/04 06:21:58;;;;;;;1.60;0.43;;;;;;;;;;2072585;28;20029;-79
2021/09/04 06:23:16;;;;;;;0.85;0.45;;;;;;;;;;2078173;28;20017;-81
2021/09/04 06:24:35;;;;;;;1.48;0.40;;;;;;;;;;2081892;28;20045;-82
2021/09/04 06:25:54;;;;;;;1.95;0.22;;;;;;;;;;2082453;28;20029;-80
2021/09/04 06:27:13;;;;;;;0.57;0.30;;;;;;;;;;2081637;28;20022;-80
2021/09/04 06:28:31;;;;;;;0.43;0.40;;;;;;;;;;2078024;28;20033;-80
2021/09/04 06:29:50;;;;;;;2.20;0.35;;;;;;;;;;2076512;28;20060;-79
2021/09/04 06:31:09;;;;;;;0.93;0.50;;;;;;;;;;2074926;28;20030;-78
2021/09/04 06:32:27;;;;;;;0.63;0.30;;;;;;;;;;2085746;28;20025;-79
2021/09/04 06:33:46;;;;;;;0.88;0.45;;;;;;;;;;2079574;28;20026;-79
2021/09/04 06:35:05;;;;;;;0.40;0.30;;;;;;;;;;2078690;28;20033;-79
2021/09/04 06:36:24;;;;;;;0.30;0.30;;;;;;;;;;2081717;28;20088;-83
2021/09/04 06:37:43;;;;;;;2.63;0.40;;;;;;;;;;2075642;28;20418;-80
2021/09/04 06:39:02;;;;;;;0.70;0.40;;;;;;;;;;2083040;28;20033;-79
2021/09/04 06:40:21;;;;;;;0.75;0.38;;;;;;;;;;2078240;28;20104;-80
2021/09/04 06:41:40;;;;;;;1.67;0.60;;;;;;;;;;2079547;28;20033;-79
2021/09/04 06:42:59;;;;;;;0.43;0.30;;;;;;;;;;2067713;28;20030;-81
2021/09/04 06:44:17;;;;;;;1.85;1.00;;;;;;;;;;2076885;28;20037;-79
2021/09/04 06:45:37;;;;;;;3.33;0.50;;;;;;;;;;2077185;28;20030;-80
2021/09/04 06:46:56;;;;;;;0.65;0.40;;;;;;;;;;2079099;28;20053;-80
2021/09/04 06:48:14;;;;;;;0.80;0.40;;;;;;;;;;2081087;28;20691;-80
2021/09/04 06:49:33;;;;;;;1.20;0.45;;;;;;;;;;2076726;28;20025;-80
2021/09/04 06:50:52;;;;;;;0.82;0.30;;;;;;;;;;2077822;28;20030;-80
2021/09/04 06:52:11;;;;;;;1.15;0.30;;;;;;;;;;2079900;28;20033;-81
2021/09/04 06:53:30;;;;;;;2.70;0.30;;;;;;;;;;2075413;28;20432;-79
2021/09/04 06:54:49;;;;;;;0.47;0.28;;;;;;;;;;2079087;28;20033;-79
2021/09/04 06:56:08;;;;;;;0.35;0.35;;;;;;;;;;2074219;28;20037;-79
2021/09/04 06:57:27;;;;;;;3.47;0.52;;;;;;;;;;2078402;28;20108;-79
2021/09/04 06:58:46;;;;;;;1.77;0.40;;;;;;;;;;2084903;28;20025;-79
2021/09/04 07:00:05;;;;;;;4.55;0.50;;;;;;;;;;2081962;28;20041;-78
2021/09/04 07:01:24;;;;;;;0.63;0.60;;;;;;;;;;2085316;28;20033;-79
2021/09/04 07:02:43;;;;;;;1.13;0.38;;;;;;;;;;2081427;28;20097;-78
2021/09/04 07:04:01;;;;;;;0.47;0.30;;;;;;;;;;2079511;28;20116;-78
2021/09/04 07:05:20;;;;;;;2.63;0.30;;;;;;;;;;2081051;28;20029;-78
2021/09/04 07:06:39;;;;;;;1.50;0.30;;;;;;;;;;2077251;28;20030;-79
2021/09/04 07:07:58;;;;;;;4.22;0.50;;;;;;;;;;2081302;28;20053;-80
2021/09/04 07:09:17;;;;;;;2.75;0.70;;;;;;;;;;2078117;28;20059;-79
2021/09/04 07:10:36;;;;;;;2.05;0.43;;;;;;;;;;2078096;28;20022;-80
2021/09/04 07:11:55;;;;;;;0.80;0.40;;;;;;;;;;2087089;28;20029;-79
2021/09/04 07:13:14;;;;;;;1.05;0.40;;;;;;;;;;2079396;28;20412;-79
2021/09/04 07:14:33;;;;;;;1.30;0.60;;;;;;;;;;2078913;28;20477;-78
2021/09/04 07:15:52;;;;;;;2.28;0.22;;;;;;;;;;2078146;28;20029;-78
2021/09/04 07:17:11;;;;;;;1.20;0.40;;;;;;;;;;2077444;28;20025;-78
2021/09/04 07:18:30;;;;;;;0.68;0.22;;;;;;;;;;2077426;28;20029;-79
2021/09/04 07:19:49;;;;;;;0.47;0.25;;;;;;;;;;2081417;28;20473;-78
2021/09/04 07:21:07;;;;;;;0.22;0.15;;;;;;;;;;2078777;28;20120;-78
2021/09/04 07:22:26;;;;;;;1.70;0.32;;;;;;;;;;2080652;28;20041;-79
2021/09/04 07:23:45;;;;;;;1.63;0.68;;;;;;;;;;2080489;28;20033;-79
2021/09/04 07:25:04;;;;;;;3.25;0.63;;;;;;;;;;2073396;28;20069;-79
2021/09/04 07:26:23;;;;;;;2.10;0.50;;;;;;;;;;2078098;28;20069;-79
2021/09/04 07:27:41;;;;;;;0.32;0.20;;;;;;;;;;2076433;28;20056;-79
2021/09/04 07:29:00;;;;;;;0.80;0.50;;;;;;;;;;2086541;28;20025;-79
2021/09/04 07:30:19;;;;;;;0.57;0.40;;;;;;;;;;2075446;28;20108;-79
2021/09/04 07:31:38;;;;;;;1.48;0.55;;;;;;;;;;2084314;28;20025;-80
2021/09/04 07:32:57;;;;;;;3.13;0.40;;;;;;;;;;2076602;28;20037;-79
2021/09/04 07:34:16;;;;;;;0.93;0.32;;;;;;;;;;2081018;28;20124;-78
2021/09/04 07:35:35;;;;;;;0.40;0.30;;;;;;;;;;2081749;28;20449;-80
2021/09/04 07:36:54;;;;;;;6.22;0.40;;;;;;;;;;2081326;28;20025;-79
2021/09/04 07:38:13;;;;;;;1.50;0.40;;;;;;;;;;2075338;28;20057;-81
2021/09/04 07:39:31;;;;;;;1.10;0.25;;;;;;;;;;2079720;28;20044;-80
2021/09/04 07:40:51;;;;;;;2.35;0.40;;;;;;;;;;2077126;28;20025;-79
2021/09/04 07:42:09;;;;;;;1.70;0.30;;;;;;;;;;2077125;28;20151;-78
2021/09/04 07:43:28;;;;;;;2.28;0.38;;;;;;;;;;2077444;28;20105;-78
2021/09/04 07:44:47;;;;;;;0.70;0.40;;;;;;;;;;2078171;28;20096;-79
2021/09/04 07:46:06;;;;;;;2.30;0.47;;;;;;;;;;2077591;28;20033;-79
2021/09/04 07:47:25;;;;;;;0.70;0.32;;;;;;;;;;2076374;28;20497;-79
2021/09/04 07:48:44;;;;;;;0.88;0.20;;;;;;;;;;2082103;28;20030;-79
2021/09/04 07:50:03;;;;;;;0.95;0.30;;;;;;;;;;2082486;28;20052;-79
2021/09/04 07:51:22;;;;;;;1.55;0.30;;;;;;;;;;2074475;28;20073;-79
2021/09/04 07:52:41;;;;;;;0.40;0.20;;;;;;;;;;2077929;28;20030;-80
2021/09/04 07:54:00;;;;;;;1.35;0.30;;;;;;;;;;2077353;28;20069;-78